createdAt,value
2023-04-01T00:02:07.357Z,98281.72
2023-04-01T00:04:35.361Z,98282.16
2023-04-01T00:07:03.438Z,98268.97
2023-04-01T00:09:31.423Z,98279.19
2023-04-01T00:11:59.193Z,98280.78
2023-04-01T00:14:27.017Z,98264.66
2023-04-01T00:16:54.880Z,98239.75
2023-04-01T00:19:24.212Z,98279.09
2023-04-01T00:21:53.184Z,98267.63
2023-04-01T00:24:21.085Z,98267.13
2023-04-01T00:26:49.005Z,98279.59
2023-04-01T00:29:16.788Z,98275.06
2023-04-01T00:31:44.823Z,98276.94
2023-04-01T00:34:12.842Z,98282.28
2023-04-01T00:36:42.030Z,98266.00
2023-04-01T00:39:10.235Z,98241.25
2023-04-01T00:41:38.224Z,98275.09
2023-04-01T00:44:21.851Z,98274.41
2023-04-01T00:46:49.700Z,98227.97
2023-04-01T00:49:20.627Z,98265.53
2023-04-01T00:51:53.914Z,98269.97
2023-04-01T00:54:23.610Z,98264.88
2023-04-01T00:56:57.149Z,98240.31
2023-04-01T00:59:27.368Z,98265.25
2023-04-01T01:01:55.523Z,98261.97
2023-04-01T01:04:25.580Z,98276.66
2023-04-01T01:07:03.973Z,98179.81
2023-04-01T01:09:41.887Z,98269.81
2023-04-01T01:12:15.341Z,98265.84
2023-04-01T01:15:03.735Z,98261.38
2023-04-01T01:17:45.075Z,98261.38
2023-04-01T01:20:55.201Z,98241.38
2023-04-01T01:23:55.841Z,98255.31
2023-04-01T01:26:59.231Z,98257.28
2023-04-01T01:29:47.206Z,98252.44
2023-04-01T01:32:28.005Z,98254.59
2023-04-01T01:35:01.453Z,98256.63
2023-04-01T01:37:33.556Z,98249.06
2023-04-01T01:40:06.064Z,98250.19
2023-04-01T01:42:39.049Z,98257.47
2023-04-01T01:45:09.412Z,98201.63
2023-04-01T01:47:38.821Z,98258.88
2023-04-01T01:50:10.039Z,98265.50
2023-04-01T01:52:39.124Z,98261.84
2023-04-01T01:55:26.190Z,98262.31
2023-04-01T01:57:54.683Z,98253.44
2023-04-01T02:00:23.611Z,98258.13
2023-04-01T02:02:52.376Z,98255.72
2023-04-01T02:05:23.121Z,98251.88
2023-04-01T02:08:02.990Z,98247.66
2023-04-01T02:10:36.087Z,98261.19
2023-04-01T02:13:11.670Z,98262.41
2023-04-01T02:15:44.847Z,98260.81
2023-04-01T02:18:15.569Z,98257.97
2023-04-01T02:20:45.632Z,98256.75
2023-04-01T02:23:15.996Z,98262.38
2023-04-01T02:25:45.635Z,98250.13
2023-04-01T02:28:17.624Z,98244.44
2023-04-01T02:30:46.601Z,98253.44
2023-04-01T02:33:14.469Z,98201.91
2023-04-01T02:35:42.503Z,98259.00
2023-04-01T02:38:10.668Z,98254.69
2023-04-01T02:40:49.335Z,98256.25
2023-04-01T02:43:18.414Z,98245.72
2023-04-01T02:45:46.416Z,98260.13
2023-04-01T02:48:15.044Z,98268.31
2023-04-01T02:50:42.920Z,98272.47
2023-04-01T02:53:10.934Z,98264.22
2023-04-01T02:55:38.809Z,98270.97
2023-04-01T02:58:08.061Z,98267.13
2023-04-01T03:00:36.275Z,98270.78
2023-04-01T03:03:04.595Z,98270.88
2023-04-01T03:05:32.817Z,98271.19
2023-04-01T03:08:00.854Z,98265.00
2023-04-01T03:10:28.688Z,98269.28
2023-04-01T03:12:56.492Z,98240.59
2023-04-01T03:15:25.712Z,98270.16
2023-04-01T03:17:53.512Z,98265.84
2023-04-01T03:20:21.385Z,98262.97
2023-04-01T03:22:49.351Z,98263.75
2023-04-01T03:25:17.719Z,98261.59
2023-04-01T03:27:45.615Z,98241.81
2023-04-01T03:30:13.749Z,98263.75
2023-04-01T03:32:51.655Z,98256.00
2023-04-01T03:35:19.948Z,98258.34
2023-04-01T03:37:47.727Z,98261.75
2023-04-01T03:40:15.742Z,98262.53
2023-04-01T03:42:44.051Z,98258.38
2023-04-01T03:45:12.944Z,98208.34
2023-04-01T03:47:41.725Z,98267.81
2023-04-01T03:50:12.121Z,98265.84
2023-04-01T03:52:39.790Z,98271.00
2023-04-01T03:55:08.727Z,98262.63
2023-04-01T03:57:37.630Z,98275.97
2023-04-01T04:00:16.390Z,98252.63
2023-04-01T04:02:45.969Z,98246.09
2023-04-01T04:05:19.285Z,98250.25
2023-04-01T04:07:47.173Z,98277.44
2023-04-01T04:10:15.149Z,98271.66
2023-04-01T04:12:42.984Z,98275.66
2023-04-01T04:15:12.191Z,98273.34
2023-04-01T04:17:40.705Z,98274.75
2023-04-01T04:20:09.808Z,98265.81
2023-04-01T04:22:39.163Z,98275.88
2023-04-01T04:25:09.925Z,98279.06
2023-04-01T04:27:38.398Z,98273.41
2023-04-01T04:30:12.332Z,98219.22
2023-04-01T04:32:40.344Z,98267.47
2023-04-01T04:35:08.798Z,98262.25
2023-04-01T04:37:36.738Z,98269.97
2023-04-01T04:40:07.077Z,98280.13
2023-04-01T04:42:35.052Z,98287.97
2023-04-01T04:45:08.974Z,98286.91
2023-04-01T04:47:39.910Z,98278.53
2023-04-01T04:50:09.519Z,98280.56
2023-04-01T04:52:38.918Z,98291.72
2023-04-01T04:55:09.444Z,98284.22
2023-04-01T04:57:37.565Z,98293.00
2023-04-01T05:00:06.988Z,98303.06
2023-04-01T05:02:48.686Z,98294.41
2023-04-01T05:05:16.587Z,98302.22
2023-04-01T05:07:44.342Z,98301.88
2023-04-01T05:10:13.581Z,98301.25
2023-04-01T05:12:41.489Z,98287.97
2023-04-01T05:15:11.808Z,98304.69
2023-04-01T05:17:40.537Z,98308.34
2023-04-01T05:20:09.507Z,98311.53
2023-04-01T05:22:37.464Z,98309.94
2023-04-01T05:25:06.217Z,98314.63
2023-04-01T05:27:35.771Z,98290.13
2023-04-01T05:30:03.718Z,98315.56
2023-04-01T05:32:44.684Z,98309.38
2023-04-01T05:35:13.053Z,98301.34
2023-04-01T05:37:40.991Z,98317.44
2023-04-01T05:40:10.354Z,98317.00
2023-04-01T05:42:39.499Z,98305.09
2023-04-01T05:45:09.603Z,98301.47
2023-04-01T05:48:07.411Z,98317.56
2023-04-01T05:50:42.138Z,98319.91
2023-04-01T05:53:11.489Z,98317.09
2023-04-01T05:55:42.863Z,98318.09
2023-04-01T05:58:12.089Z,98315.16
2023-04-01T06:00:41.973Z,98316.25
2023-04-01T06:03:09.919Z,98312.63
2023-04-01T06:05:43.452Z,98315.06
2023-04-01T06:08:19.635Z,98314.03
2023-04-01T06:11:01.568Z,98329.56
2023-04-01T06:13:44.683Z,98324.72
2023-04-01T06:16:22.967Z,98324.63
2023-04-01T06:19:01.980Z,98305.66
2023-04-01T06:22:06.742Z,98319.66
2023-04-01T06:24:51.447Z,98330.06
2023-04-01T06:27:41.291Z,98330.13
2023-04-01T06:30:29.957Z,98335.38
2023-04-01T06:33:21.229Z,98332.16
2023-04-01T06:36:07.139Z,98290.38
2023-04-01T06:38:58.802Z,98331.16
2023-04-01T06:41:50.692Z,98340.78
2023-04-01T06:44:26.615Z,98341.97
2023-04-01T06:47:30.226Z,98334.28
2023-04-01T06:50:26.295Z,98345.16
2023-04-01T06:53:25.072Z,98342.91
2023-04-01T06:56:13.627Z,98340.50
2023-04-01T06:59:07.796Z,98347.69
2023-04-01T07:01:40.434Z,98344.03
2023-04-01T07:04:15.496Z,98354.81
2023-04-01T07:06:49.209Z,98340.19
2023-04-01T07:09:21.902Z,98349.81
2023-04-01T07:12:38.808Z,98354.09
2023-04-01T07:15:48.684Z,98335.91
2023-04-01T07:18:20.281Z,98353.06
2023-04-01T07:20:51.474Z,98365.41
2023-04-01T07:23:25.315Z,98364.25
2023-04-01T07:26:18.935Z,98362.19
2023-04-01T07:29:13.343Z,98361.41
2023-04-01T07:32:06.655Z,98284.56
2023-04-01T07:34:41.883Z,98368.06
2023-04-01T07:37:17.176Z,98371.06
2023-04-01T07:39:56.148Z,98370.22
2023-04-01T07:42:41.040Z,98384.34
2023-04-01T07:45:18.218Z,98369.34
2023-04-01T07:48:07.561Z,98384.63
2023-04-01T07:50:44.369Z,98388.06
2023-04-01T07:53:24.894Z,98382.56
2023-04-01T07:56:06.426Z,98382.91
2023-04-01T07:58:49.566Z,98386.97
2023-04-01T08:01:47.588Z,98394.31
2023-04-01T08:04:27.259Z,98393.03
2023-04-01T08:07:04.657Z,98403.16
2023-04-01T08:09:44.151Z,98404.38
2023-04-01T08:12:45.658Z,98380.91
2023-04-01T08:15:48.597Z,98406.91
2023-04-01T08:18:38.939Z,98323.06
2023-04-01T08:21:12.276Z,98295.94
2023-04-01T08:23:45.855Z,98415.25
2023-04-01T08:26:25.313Z,98419.91
2023-04-01T08:28:59.071Z,98430.50
2023-04-01T08:31:33.840Z,98426.88
2023-04-01T08:34:06.950Z,98425.66
2023-04-01T08:36:39.098Z,98434.59
2023-04-01T08:39:23.186Z,98429.00
2023-04-01T08:42:24.715Z,98432.66
2023-04-01T08:45:29.481Z,98434.25
2023-04-01T08:48:38.410Z,98424.03
2023-04-01T08:51:53.781Z,98438.50
2023-04-01T08:54:39.860Z,98440.34
2023-04-01T08:57:17.383Z,98439.00
2023-04-01T09:00:23.205Z,98440.78
2023-04-01T09:03:43.623Z,98442.38
2023-04-01T09:06:30.831Z,98441.28
2023-04-01T09:09:21.808Z,98413.16
2023-04-01T09:12:13.449Z,98442.22
2023-04-01T09:15:00.828Z,98448.47
2023-04-01T09:17:58.270Z,98442.41
2023-04-01T09:20:41.785Z,98450.75
2023-04-01T09:23:29.209Z,98452.34
2023-04-01T09:26:10.759Z,98458.28
2023-04-01T09:28:50.091Z,98432.47
2023-04-01T09:31:29.294Z,98460.97
2023-04-01T09:34:55.530Z,98466.06
2023-04-01T09:37:37.854Z,98469.97
2023-04-01T09:40:19.776Z,98467.06
2023-04-01T09:43:15.034Z,98476.13
2023-04-01T09:45:50.611Z,98480.72
2023-04-01T09:48:32.177Z,98472.94
2023-04-01T09:51:14.048Z,98479.72
2023-04-01T09:53:57.436Z,98484.09
2023-04-01T09:56:49.116Z,98482.69
2023-04-01T09:59:38.116Z,98476.34
2023-04-01T10:02:37.997Z,98461.56
2023-04-01T10:05:35.373Z,98482.34
2023-04-01T10:08:52.758Z,98457.28
2023-04-01T10:11:56.378Z,98489.97
2023-04-01T10:14:46.937Z,98497.19
2023-04-01T10:17:50.883Z,98492.34
2023-04-01T10:20:33.774Z,98490.59
2023-04-01T10:23:26.072Z,98494.44
2023-04-01T10:26:30.722Z,98492.72
2023-04-01T10:29:43.135Z,98492.78
2023-04-01T10:32:37.273Z,98490.09
2023-04-01T10:35:51.496Z,98477.44
2023-04-01T10:38:49.942Z,98493.59
2023-04-01T10:41:48.136Z,98473.38
2023-04-01T10:45:21.734Z,98498.66
2023-04-01T10:48:25.335Z,98506.00
2023-04-01T10:51:10.523Z,98508.03
2023-04-01T10:54:12.345Z,98510.06
2023-04-01T10:57:18.391Z,98497.31
2023-04-01T11:01:05.053Z,98510.44
2023-04-01T11:04:26.492Z,98513.31
2023-04-01T11:08:15.605Z,98508.25
2023-04-01T11:11:10.303Z,98522.22
2023-04-01T11:14:02.100Z,98521.13
2023-04-01T11:17:08.471Z,98517.44
2023-04-01T11:20:02.109Z,98526.13
2023-04-01T11:23:04.045Z,98523.44
2023-04-01T11:25:57.216Z,98534.44
2023-04-01T11:29:18.756Z,98510.53
2023-04-01T11:31:58.130Z,98539.06
2023-04-01T11:34:51.541Z,98534.91
2023-04-01T11:37:31.633Z,98535.47
2023-04-01T11:40:47.529Z,98499.56
2023-04-01T11:43:39.537Z,98435.09
2023-04-01T11:46:44.842Z,98536.03
2023-04-01T11:49:31.744Z,98547.16
2023-04-01T11:52:34.389Z,98551.78
2023-04-01T11:55:17.760Z,98548.50
2023-04-01T11:57:58.992Z,98555.16
2023-04-01T12:01:06.109Z,98559.28
2023-04-01T12:04:07.170Z,98558.38
2023-04-01T12:06:43.903Z,98560.28
2023-04-01T12:09:19.646Z,98563.03
2023-04-01T12:12:00.335Z,98553.59
2023-04-01T12:14:44.279Z,98558.41
2023-04-01T12:17:26.429Z,98566.53
2023-04-01T12:20:01.854Z,98559.56
2023-04-01T12:22:45.664Z,98573.28
2023-04-01T12:25:28.045Z,98531.00
2023-04-01T12:28:07.129Z,98577.03
2023-04-01T12:30:49.876Z,98569.88
2023-04-01T12:33:49.950Z,98556.66
2023-04-01T12:36:37.317Z,98569.84
2023-04-01T12:39:24.843Z,98570.00
2023-04-01T12:42:01.593Z,98589.34
2023-04-01T12:44:50.941Z,98597.75
2023-04-01T12:47:49.594Z,98590.47
2023-04-01T12:50:38.403Z,98597.81
2023-04-01T12:53:23.543Z,98606.63
2023-04-01T12:55:53.600Z,98597.06
2023-04-01T12:59:00.992Z,98606.72
2023-04-01T13:01:46.693Z,98607.50
2023-04-01T13:04:36.190Z,98531.59
2023-04-01T13:07:39.881Z,98610.47
2023-04-01T13:10:18.783Z,98601.97
2023-04-01T13:13:07.941Z,98584.69
2023-04-01T13:15:42.136Z,98629.34
2023-04-01T13:18:23.245Z,98629.19
2023-04-01T13:21:01.295Z,98627.00
2023-04-01T13:23:43.765Z,98634.97
2023-04-01T13:26:20.543Z,98646.16
2023-04-01T13:28:55.716Z,98641.19
2023-04-01T13:31:39.013Z,98629.84
2023-04-01T13:34:19.962Z,98648.59
2023-04-01T13:37:02.567Z,98637.25
2023-04-01T13:39:44.025Z,98636.38
2023-04-01T13:42:23.140Z,98656.81
2023-04-01T13:44:57.234Z,98642.19
2023-04-01T13:48:05.116Z,98654.53
2023-04-01T13:51:10.780Z,98655.81
2023-04-01T13:54:12.325Z,98655.91
2023-04-01T13:56:49.297Z,98664.50
2023-04-01T13:59:41.378Z,98663.63
2023-04-01T14:02:31.309Z,98663.69
2023-04-01T14:05:32.283Z,98672.28
2023-04-01T14:08:16.697Z,98665.88
2023-04-01T14:10:52.969Z,98665.41
2023-04-01T14:13:30.432Z,98679.88
2023-04-01T14:16:26.007Z,98681.16
2023-04-01T14:19:14.910Z,98670.22
2023-04-01T14:21:49.049Z,98660.19
2023-04-01T14:24:31.298Z,98692.47
2023-04-01T14:27:16.056Z,98671.03
2023-04-01T14:29:54.379Z,98696.66
2023-04-01T14:32:39.178Z,98682.28
2023-04-01T14:35:26.816Z,98709.34
2023-04-01T14:38:08.682Z,98709.09
2023-04-01T14:40:52.383Z,98707.41
2023-04-01T14:43:40.892Z,98721.31
2023-04-01T14:46:29.270Z,98716.19
2023-04-01T14:49:01.287Z,98720.34
2023-04-01T14:51:33.967Z,98727.84
2023-04-01T14:54:07.979Z,98725.69
2023-04-01T14:56:41.678Z,98736.78
2023-04-01T14:59:16.641Z,98630.38
2023-04-01T15:01:52.630Z,98735.44
2023-04-01T15:04:39.586Z,98739.22
2023-04-01T15:07:37.508Z,98746.84
2023-04-01T15:10:14.943Z,98739.81
2023-04-01T15:12:55.333Z,98744.03
2023-04-01T15:15:38.131Z,98742.09
2023-04-01T15:18:13.561Z,98756.78
2023-04-01T15:20:57.633Z,98770.22
2023-04-01T15:23:37.066Z,98756.59
2023-04-01T15:26:19.237Z,98775.25
2023-04-01T15:28:58.538Z,98777.91
2023-04-01T15:31:34.969Z,98765.44
2023-04-01T15:34:23.182Z,98787.84
2023-04-01T15:36:58.252Z,98789.44
2023-04-01T15:39:40.489Z,98763.81
2023-04-01T15:42:23.700Z,98804.63
2023-04-01T15:45:05.807Z,98804.06
2023-04-01T15:47:39.912Z,98810.63
2023-04-01T15:50:48.622Z,98815.78
2023-04-01T15:53:42.569Z,98817.66
2023-04-01T15:56:22.678Z,98817.09
2023-04-01T15:58:59.381Z,98821.94
2023-04-01T16:01:40.223Z,98827.53
2023-04-01T16:04:24.249Z,98835.06
2023-04-01T16:07:05.701Z,98817.84
2023-04-01T16:10:01.453Z,98836.34
2023-04-01T16:12:46.426Z,98847.53
2023-04-01T16:15:25.107Z,98844.50
2023-04-01T16:18:19.674Z,98839.44
2023-04-01T16:20:56.958Z,98855.22
2023-04-01T16:23:28.848Z,98852.00
2023-04-01T16:26:07.536Z,98857.63
2023-04-01T16:28:44.110Z,98859.78
2023-04-01T16:31:15.986Z,98861.28
2023-04-01T16:33:53.186Z,98878.25
2023-04-01T16:36:29.904Z,98864.50
2023-04-01T16:39:17.576Z,98877.56
2023-04-01T16:41:51.931Z,98883.25
2023-04-01T16:44:23.883Z,98895.25
2023-04-01T16:46:54.298Z,98859.16
2023-04-01T16:49:31.537Z,98893.03
2023-04-01T16:52:15.924Z,98908.81
2023-04-01T16:54:50.192Z,98916.13
2023-04-01T16:57:27.169Z,98922.06
2023-04-01T17:00:01.954Z,98923.63
2023-04-01T17:02:35.886Z,98928.13
2023-04-01T17:05:08.115Z,98921.63
2023-04-01T17:07:48.830Z,98951.97
2023-04-01T17:10:39.395Z,98946.41
2023-04-01T17:13:29.466Z,98968.16
2023-04-01T17:16:12.161Z,98963.59
2023-04-01T17:18:53.122Z,98950.84
2023-04-01T17:21:27.606Z,98970.91
2023-04-01T17:24:05.224Z,98970.16
2023-04-01T17:26:43.023Z,98872.09
2023-04-01T17:29:21.266Z,99010.03
2023-04-01T17:31:56.204Z,99011.16
2023-04-01T17:34:44.893Z,99021.34
2023-04-01T17:37:41.026Z,98964.94
2023-04-01T17:40:33.471Z,99030.97
2023-04-01T17:43:14.400Z,99040.09
2023-04-01T17:45:50.748Z,99038.97
2023-04-01T17:48:27.229Z,99046.72
2023-04-01T17:51:07.304Z,99053.56
2023-04-01T17:53:43.481Z,99048.53
2023-04-01T17:56:19.840Z,99070.91
2023-04-01T17:58:51.205Z,99075.84
2023-04-01T18:01:36.024Z,99069.41
2023-04-01T18:04:20.032Z,99085.41
2023-04-01T18:07:05.586Z,99051.28
2023-04-01T18:09:44.270Z,99112.59
2023-04-01T18:12:23.542Z,99108.81
2023-04-01T18:15:08.584Z,99116.31
2023-04-01T18:17:47.059Z,99103.66
2023-04-01T18:20:30.485Z,99152.22
2023-04-01T18:23:03.562Z,99121.13
2023-04-01T18:25:37.111Z,99137.59
2023-04-01T18:28:34.140Z,99148.63
2023-04-01T18:31:11.372Z,99151.13
2023-04-01T18:33:50.055Z,99156.06
2023-04-01T18:36:28.513Z,99091.53
2023-04-01T18:38:59.923Z,99174.72
2023-04-01T18:41:37.340Z,99174.16
2023-04-01T18:44:29.869Z,99188.72
2023-04-01T18:47:07.379Z,99201.28
2023-04-01T18:49:45.512Z,99199.06
2023-04-01T18:52:22.328Z,99210.25
2023-04-01T18:55:17.499Z,99220.22
2023-04-01T18:57:51.252Z,99181.00
2023-04-01T19:00:26.159Z,99105.28
2023-04-01T19:03:02.740Z,99182.75
2023-04-01T19:05:34.821Z,99213.69
2023-04-01T19:08:22.404Z,99220.25
2023-04-01T19:10:59.076Z,99217.97
2023-04-01T19:13:35.750Z,99236.19
2023-04-01T19:16:16.049Z,99229.19
2023-04-01T19:19:20.605Z,99270.22
2023-04-01T19:21:58.687Z,99193.56
2023-04-01T19:24:51.819Z,99281.44
2023-04-01T19:27:30.099Z,99206.34
2023-04-01T19:30:19.270Z,99288.09
2023-04-01T19:32:59.072Z,99294.03
2023-04-01T19:35:35.797Z,99264.13
2023-04-01T19:38:13.333Z,99295.59
2023-04-01T19:40:52.575Z,99292.06
2023-04-01T19:43:51.054Z,99309.59
2023-04-01T19:46:26.840Z,99317.16
2023-04-01T19:49:08.931Z,99288.25
2023-04-01T19:51:42.424Z,99336.72
2023-04-01T19:54:24.096Z,99332.50
2023-04-01T19:57:03.070Z,99307.47
2023-04-01T19:59:37.006Z,99285.59
2023-04-01T20:02:31.748Z,99325.78
2023-04-01T20:05:18.129Z,99361.75
2023-04-01T20:07:54.009Z,99372.72
2023-04-01T20:10:32.480Z,99370.81
2023-04-01T20:13:08.744Z,99382.75
2023-04-01T20:15:39.787Z,99392.00
2023-04-01T20:18:17.248Z,99396.88
2023-04-01T20:20:57.855Z,99404.19
2023-04-01T20:23:41.571Z,99403.94
2023-04-01T20:26:12.418Z,99416.91
2023-04-01T20:28:47.043Z,99421.97
2023-04-01T20:31:27.747Z,99394.16
2023-04-01T20:34:25.271Z,99420.03
2023-04-01T20:37:07.822Z,99423.75
2023-04-01T20:39:49.561Z,99449.72
2023-04-01T20:42:34.871Z,99450.00
2023-04-01T20:45:23.121Z,99439.94
2023-04-01T20:48:09.384Z,99439.88
2023-04-01T20:50:41.574Z,99438.19
2023-04-01T20:53:17.551Z,99473.56
2023-04-01T20:56:21.974Z,99479.78
2023-04-01T20:59:00.537Z,99481.34
2023-04-01T21:01:41.249Z,99458.88
2023-04-01T21:04:25.889Z,99489.81
2023-04-01T21:07:11.566Z,99494.81
2023-04-01T21:09:57.802Z,99497.72
2023-04-01T21:12:36.706Z,99510.31
2023-04-01T21:15:32.221Z,99506.97
2023-04-01T21:18:17.728Z,99478.81
2023-04-01T21:20:58.974Z,99515.47
2023-04-01T21:23:41.191Z,99529.59
2023-04-01T21:26:27.633Z,99543.88
2023-04-01T21:29:13.623Z,99547.34
2023-04-01T21:31:57.109Z,99560.22
2023-04-01T21:34:44.052Z,99560.91
2023-04-01T21:37:31.796Z,99562.47
2023-04-01T21:40:27.399Z,99557.38
2023-04-01T21:43:05.108Z,99582.06
2023-04-01T21:45:49.999Z,99541.81
2023-04-01T21:48:44.751Z,99585.59
2023-04-01T21:51:45.645Z,99594.47
2023-04-01T21:54:45.831Z,99589.25
2023-04-01T21:57:46.789Z,99606.31
2023-04-01T22:00:23.270Z,99606.63
2023-04-01T22:03:27.675Z,99605.19
2023-04-01T22:06:02.690Z,99612.56
2023-04-01T22:08:43.659Z,99615.13
2023-04-01T22:11:22.830Z,99615.47
2023-04-01T22:13:57.344Z,99626.38
2023-04-01T22:16:35.245Z,99598.97
2023-04-01T22:19:14.952Z,99629.25
2023-04-01T22:21:53.022Z,99638.81
2023-04-01T22:24:30.014Z,99642.09
2023-04-01T22:27:04.798Z,99645.38
2023-04-01T22:29:43.007Z,99650.75
2023-04-01T22:32:18.589Z,99669.69
2023-04-01T22:34:59.290Z,99645.56
2023-04-01T22:37:41.133Z,99670.25
2023-04-01T22:40:24.980Z,99640.25
2023-04-01T22:42:59.372Z,99691.81
2023-04-01T22:45:52.449Z,99692.78
2023-04-01T22:48:28.036Z,99690.63
2023-04-01T22:51:00.997Z,99684.09
2023-04-01T22:53:44.928Z,99708.88
2023-04-01T22:56:19.304Z,99684.34
2023-04-01T22:58:54.504Z,99677.50
2023-04-01T23:01:28.357Z,99724.78
2023-04-01T23:04:00.128Z,99720.88
2023-04-01T23:06:32.084Z,99730.16
2023-04-01T23:09:11.061Z,99593.00
2023-04-01T23:11:46.428Z,99733.28
2023-04-01T23:14:34.984Z,99738.31
2023-04-01T23:17:21.307Z,99756.34
2023-04-01T23:19:59.345Z,99759.56
2023-04-01T23:22:33.924Z,99772.16
2023-04-01T23:25:16.720Z,99769.13
2023-04-01T23:27:53.547Z,99763.66
2023-04-01T23:30:50.845Z,99781.09
2023-04-01T23:33:24.881Z,99782.34
2023-04-01T23:35:57.383Z,99788.94
2023-04-01T23:38:28.077Z,99798.00
2023-04-01T23:40:57.202Z,99810.06
2023-04-01T23:43:28.902Z,99795.50
2023-04-01T23:45:57.908Z,99807.53
2023-04-01T23:48:34.267Z,99816.13
2023-04-01T23:51:04.274Z,99796.59
2023-04-01T23:53:35.940Z,99804.06
2023-04-01T23:56:05.585Z,99825.00
2023-04-01T23:58:45.089Z,99840.88
